createdAt,value
2022-12-04T00:02:00.250Z,86.57
2022-12-04T00:04:26.636Z,86.51
2022-12-04T00:06:58.920Z,85.23
2022-12-04T00:09:26.032Z,84.35
2022-12-04T00:11:52.495Z,85.57
2022-12-04T00:14:19.113Z,86.23
2022-12-04T00:16:45.598Z,85.02
2022-12-04T00:19:11.989Z,84.90
2022-12-04T00:21:38.421Z,84.42
2022-12-04T00:24:05.462Z,84.57
2022-12-04T00:26:31.882Z,84.00
2022-12-04T00:28:59.095Z,84.72
2022-12-04T00:31:28.301Z,85.53
2022-12-04T00:33:55.089Z,84.67
2022-12-04T00:36:23.818Z,85.53
2022-12-04T00:38:50.754Z,86.43
2022-12-04T00:41:21.832Z,86.72
2022-12-04T00:43:48.506Z,86.23
2022-12-04T00:46:15.952Z,85.97
2022-12-04T00:48:42.979Z,86.43
2022-12-04T00:51:14.714Z,85.56
2022-12-04T00:53:41.996Z,83.66
2022-12-04T00:56:20.353Z,83.20
2022-12-04T00:58:47.673Z,83.35
2022-12-04T01:01:17.813Z,83.22
2022-12-04T01:03:44.627Z,83.54
2022-12-04T01:06:25.933Z,83.85
2022-12-04T01:08:54.191Z,84.16
2022-12-04T01:11:22.206Z,83.97
2022-12-04T01:13:49.212Z,84.29
2022-12-04T01:16:28.323Z,84.33
2022-12-04T01:18:54.789Z,84.47
2022-12-04T01:21:21.171Z,84.66
2022-12-04T01:23:48.369Z,83.63
2022-12-04T01:26:14.824Z,83.84
2022-12-04T01:28:41.563Z,85.72
2022-12-04T01:31:11.587Z,84.55
2022-12-04T01:33:39.567Z,85.25
2022-12-04T01:36:09.322Z,85.85
2022-12-04T01:38:36.381Z,85.09
2022-12-04T01:41:04.000Z,84.75
2022-12-04T01:43:32.321Z,84.24
2022-12-04T01:46:00.310Z,84.83
2022-12-04T01:48:33.048Z,85.45
2022-12-04T01:51:19.240Z,86.32
2022-12-04T01:53:55.946Z,85.56
2022-12-04T01:56:26.311Z,85.76
2022-12-04T01:58:56.837Z,85.55
2022-12-04T02:01:23.518Z,85.53
2022-12-04T02:03:50.243Z,85.41
2022-12-04T02:06:16.664Z,84.27
2022-12-04T02:08:43.244Z,84.55
2022-12-04T02:11:19.509Z,84.78
2022-12-04T02:13:51.735Z,85.09
2022-12-04T02:16:45.847Z,85.06
2022-12-04T02:19:34.221Z,86.28
2022-12-04T02:22:05.545Z,84.84
2022-12-04T02:24:31.962Z,84.63
2022-12-04T02:27:03.724Z,85.04
2022-12-04T02:29:46.976Z,85.05
2022-12-04T02:32:23.749Z,84.25
2022-12-04T02:35:04.065Z,85.46
2022-12-04T02:37:37.875Z,85.68
2022-12-04T02:40:25.824Z,85.33
2022-12-04T02:43:01.088Z,85.97
2022-12-04T02:45:32.577Z,86.05
2022-12-04T02:48:02.965Z,84.87
2022-12-04T02:50:32.637Z,82.96
2022-12-04T02:53:05.525Z,82.27
2022-12-04T02:55:45.945Z,83.86
2022-12-04T02:58:17.996Z,83.45
2022-12-04T03:00:47.055Z,84.49
2022-12-04T03:03:19.001Z,85.76
2022-12-04T03:06:00.157Z,85.09
2022-12-04T03:08:34.098Z,85.35
2022-12-04T03:11:01.401Z,84.38
2022-12-04T03:13:49.112Z,84.96
2022-12-04T03:16:24.352Z,85.97
2022-12-04T03:19:01.648Z,85.43
2022-12-04T03:21:35.700Z,85.58
2022-12-04T03:24:26.870Z,86.14
2022-12-04T03:27:14.321Z,84.93
2022-12-04T03:30:11.436Z,83.85
2022-12-04T03:32:56.569Z,85.00
2022-12-04T03:35:35.041Z,85.12
2022-12-04T03:38:10.148Z,85.41
2022-12-04T03:40:45.899Z,86.04
2022-12-04T03:43:29.333Z,85.20
2022-12-04T03:46:02.544Z,84.44
2022-12-04T03:48:47.515Z,85.89
2022-12-04T03:51:25.803Z,85.32
2022-12-04T03:54:02.657Z,85.82
2022-12-04T03:56:34.706Z,85.77
2022-12-04T03:59:08.313Z,86.35
2022-12-04T04:01:40.488Z,86.36
2022-12-04T04:04:13.604Z,86.46
2022-12-04T04:06:47.741Z,85.56
2022-12-04T04:09:22.670Z,85.39
2022-12-04T04:11:56.112Z,85.37
2022-12-04T04:14:37.393Z,85.86
2022-12-04T04:17:08.943Z,87.43
2022-12-04T04:19:38.355Z,87.98
2022-12-04T04:22:09.174Z,89.02
2022-12-04T04:24:50.873Z,87.65
2022-12-04T04:27:17.222Z,88.96
2022-12-04T04:29:50.619Z,89.22
2022-12-04T04:32:37.922Z,90.01
2022-12-04T04:35:07.026Z,88.26
2022-12-04T04:37:52.863Z,87.64
2022-12-04T04:40:22.910Z,87.10
2022-12-04T04:43:05.182Z,87.29
2022-12-04T04:45:47.374Z,88.26
2022-12-04T04:48:23.959Z,87.55
2022-12-04T04:50:51.162Z,88.62
2022-12-04T04:53:24.772Z,89.61
2022-12-04T04:55:51.305Z,88.77
2022-12-04T04:58:20.205Z,86.44
2022-12-04T05:01:00.954Z,86.35
2022-12-04T05:03:28.151Z,86.58
2022-12-04T05:05:54.558Z,87.71
2022-12-04T05:08:21.483Z,87.80
2022-12-04T05:10:47.907Z,87.58
2022-12-04T05:13:15.424Z,88.12
2022-12-04T05:15:41.899Z,89.27
2022-12-04T05:18:09.293Z,88.08
2022-12-04T05:20:39.271Z,87.90
2022-12-04T05:23:06.052Z,88.53
2022-12-04T05:25:32.671Z,89.35
2022-12-04T05:27:59.004Z,88.45
2022-12-04T05:30:25.584Z,88.78
2022-12-04T05:32:52.153Z,87.24
2022-12-04T05:35:18.847Z,87.48
2022-12-04T05:37:45.550Z,87.99
2022-12-04T05:40:12.153Z,87.67
2022-12-04T05:42:38.858Z,87.04
2022-12-04T05:45:06.038Z,87.71
2022-12-04T05:47:32.437Z,87.16
2022-12-04T05:49:58.910Z,87.08
2022-12-04T05:52:25.259Z,87.08
2022-12-04T05:54:51.647Z,88.23
2022-12-04T05:57:18.070Z,88.01
2022-12-04T05:59:44.723Z,86.78
2022-12-04T06:02:11.325Z,88.11
2022-12-04T06:04:37.886Z,88.86
2022-12-04T06:07:04.286Z,88.77
2022-12-04T06:09:30.968Z,87.65
2022-12-04T06:11:58.351Z,88.65
2022-12-04T06:14:25.063Z,87.73
2022-12-04T06:16:51.497Z,87.71
2022-12-04T06:19:20.176Z,87.88
2022-12-04T06:21:49.398Z,87.32
2022-12-04T06:24:19.319Z,87.42
2022-12-04T06:27:11.345Z,86.48
2022-12-04T06:29:33.220Z,86.76
2022-12-04T06:31:59.808Z,87.08
2022-12-04T06:34:26.333Z,87.18
2022-12-04T06:36:52.983Z,87.13
2022-12-04T06:39:19.432Z,86.40
2022-12-04T06:41:46.037Z,85.77
2022-12-04T06:44:13.407Z,86.95
2022-12-04T06:46:45.099Z,87.69
2022-12-04T06:49:13.341Z,87.02
2022-12-04T06:51:39.724Z,87.51
2022-12-04T06:54:06.510Z,88.66
2022-12-04T06:56:33.836Z,87.06
2022-12-04T06:59:02.409Z,86.09
2022-12-04T07:01:31.863Z,87.69
2022-12-04T07:03:58.932Z,86.97
2022-12-04T07:06:31.751Z,87.87
2022-12-04T07:09:01.615Z,87.93
2022-12-04T07:11:29.182Z,87.72
2022-12-04T07:13:55.820Z,87.64
2022-12-04T07:16:24.331Z,86.52
2022-12-04T07:18:51.850Z,87.26
2022-12-04T07:21:20.011Z,87.65
2022-12-04T07:23:49.588Z,87.91
2022-12-04T07:26:16.239Z,88.86
2022-12-04T07:28:42.742Z,88.16
2022-12-04T07:31:13.223Z,87.43
2022-12-04T07:33:40.471Z,88.09
2022-12-04T07:36:09.382Z,84.45
2022-12-04T07:38:35.928Z,85.52
2022-12-04T07:41:04.637Z,85.62
2022-12-04T07:43:32.293Z,85.89
2022-12-04T07:46:03.339Z,86.51
2022-12-04T07:48:33.350Z,86.19
2022-12-04T07:51:08.729Z,87.61
2022-12-04T07:53:36.496Z,88.27
2022-12-04T07:56:05.184Z,86.42
2022-12-04T07:58:33.015Z,87.59
2022-12-04T08:01:26.336Z,88.15
2022-12-04T08:03:56.136Z,86.53
2022-12-04T08:06:24.720Z,86.04
2022-12-04T08:08:52.454Z,87.56
2022-12-04T08:11:22.101Z,88.28
2022-12-04T08:13:49.256Z,89.14
2022-12-04T08:16:15.901Z,87.19
2022-12-04T08:18:42.641Z,87.74
2022-12-04T08:21:11.920Z,86.04
2022-12-04T08:23:40.399Z,86.97
2022-12-04T08:26:07.524Z,87.12
2022-12-04T08:28:35.277Z,87.86
2022-12-04T08:31:03.667Z,85.75
2022-12-04T08:33:30.178Z,85.55
2022-12-04T08:35:56.849Z,86.19
2022-12-04T08:38:23.315Z,87.68
2022-12-04T08:40:49.983Z,88.03
2022-12-04T08:43:16.491Z,86.83
2022-12-04T08:45:42.948Z,87.09
2022-12-04T08:48:09.697Z,86.34
2022-12-04T08:50:36.105Z,86.66
2022-12-04T08:53:02.541Z,86.50
2022-12-04T08:55:28.952Z,85.11
2022-12-04T08:57:55.340Z,86.46
2022-12-04T09:00:21.776Z,86.91
2022-12-04T09:02:49.369Z,87.26
2022-12-04T09:05:16.543Z,86.23
2022-12-04T09:07:42.898Z,85.05
2022-12-04T09:10:10.176Z,85.17
2022-12-04T09:12:36.542Z,85.56
2022-12-04T09:15:03.137Z,86.03
2022-12-04T09:17:29.647Z,86.77
2022-12-04T09:20:00.646Z,85.73
2022-12-04T09:22:40.503Z,84.91
2022-12-04T09:25:14.417Z,84.38
2022-12-04T09:27:40.834Z,84.87
2022-12-04T09:30:09.565Z,86.26
2022-12-04T09:32:38.173Z,86.45
2022-12-04T09:35:05.640Z,86.58
2022-12-04T09:37:35.465Z,87.43
2022-12-04T09:40:02.247Z,87.37
2022-12-04T09:42:43.437Z,85.84
2022-12-04T09:45:20.035Z,86.19
2022-12-04T09:47:53.627Z,86.30
2022-12-04T09:50:23.737Z,87.50
2022-12-04T09:52:58.807Z,84.83
2022-12-04T09:55:47.352Z,84.39
2022-12-04T09:58:17.799Z,84.01
2022-12-04T10:00:47.407Z,85.66
2022-12-04T10:03:17.466Z,86.85
2022-12-04T10:06:11.729Z,86.61
2022-12-04T10:08:41.435Z,87.16
2022-12-04T10:11:42.878Z,86.32
2022-12-04T10:14:09.596Z,85.86
2022-12-04T10:16:56.115Z,84.68
2022-12-04T10:19:25.153Z,86.28
2022-12-04T10:22:04.273Z,86.12
2022-12-04T10:24:54.055Z,86.21
2022-12-04T10:27:27.966Z,84.16
2022-12-04T10:29:59.329Z,84.28
2022-12-04T10:32:30.149Z,85.05
2022-12-04T10:35:02.955Z,84.68
2022-12-04T10:37:31.661Z,85.03
2022-12-04T10:40:20.852Z,86.57
2022-12-04T10:42:53.647Z,87.02
2022-12-04T10:45:22.680Z,87.68
2022-12-04T10:47:52.456Z,87.88
2022-12-04T10:50:23.890Z,88.51
2022-12-04T10:52:50.968Z,86.08
2022-12-04T10:55:34.960Z,86.15
2022-12-04T10:58:01.843Z,84.54
2022-12-04T11:00:36.026Z,85.93
2022-12-04T11:03:22.396Z,85.79
2022-12-04T11:05:57.202Z,85.24
2022-12-04T11:08:27.395Z,86.41
2022-12-04T11:11:02.379Z,86.59
2022-12-04T11:13:29.259Z,86.40
2022-12-04T11:15:57.303Z,85.53
2022-12-04T11:18:29.731Z,85.88
2022-12-04T11:21:13.101Z,85.30
2022-12-04T11:23:46.744Z,84.24
2022-12-04T11:26:13.579Z,84.77
2022-12-04T11:28:45.324Z,85.00
2022-12-04T11:31:17.870Z,85.63
2022-12-04T11:33:55.966Z,86.49
2022-12-04T11:36:30.239Z,85.15
2022-12-04T11:39:13.462Z,85.35
2022-12-04T11:41:40.311Z,86.58
2022-12-04T11:44:16.214Z,87.09
2022-12-04T11:46:52.765Z,86.94
2022-12-04T11:49:22.515Z,87.17
2022-12-04T11:51:57.929Z,86.93
2022-12-04T11:54:30.353Z,86.50
2022-12-04T11:57:26.771Z,85.63
2022-12-04T12:00:03.752Z,86.17
2022-12-04T12:03:03.403Z,86.33
2022-12-04T12:06:21.172Z,84.84
2022-12-04T12:09:09.399Z,85.79
2022-12-04T12:11:46.598Z,86.17
2022-12-04T12:14:30.281Z,84.80
2022-12-04T12:17:29.691Z,84.58
2022-12-04T12:20:04.109Z,85.63
2022-12-04T12:22:48.812Z,83.63
2022-12-04T12:25:37.555Z,85.08
2022-12-04T12:28:16.818Z,86.59
2022-12-04T12:31:09.331Z,86.63
2022-12-04T12:33:43.028Z,85.24
2022-12-04T12:36:11.399Z,84.66
2022-12-04T12:38:46.613Z,84.73
2022-12-04T12:41:20.528Z,84.47
2022-12-04T12:44:30.644Z,83.05
2022-12-04T12:47:02.390Z,83.38
2022-12-04T12:49:39.029Z,84.41
2022-12-04T12:52:31.645Z,84.41
2022-12-04T12:55:23.213Z,85.27
2022-12-04T12:58:09.904Z,84.00
2022-12-04T13:00:49.546Z,83.80
2022-12-04T13:03:39.927Z,85.49
2022-12-04T13:06:12.488Z,82.54
2022-12-04T13:08:53.156Z,82.63
2022-12-04T13:11:25.650Z,84.05
2022-12-04T13:13:57.525Z,85.07
2022-12-04T13:16:34.208Z,85.78
2022-12-04T13:19:11.344Z,85.76
2022-12-04T13:22:01.618Z,83.58
2022-12-04T13:24:52.792Z,85.07
2022-12-04T13:27:34.498Z,84.58
2022-12-04T13:30:18.968Z,85.66
2022-12-04T13:33:04.427Z,85.64
2022-12-04T13:36:01.464Z,83.79
2022-12-04T13:39:00.415Z,83.55
2022-12-04T13:41:28.122Z,83.56
2022-12-04T13:43:55.346Z,83.78
2022-12-04T13:46:30.817Z,84.37
2022-12-04T13:49:24.677Z,85.74
2022-12-04T13:51:52.515Z,86.43
2022-12-04T13:54:27.203Z,86.29
2022-12-04T13:57:16.533Z,85.11
2022-12-04T13:59:43.847Z,83.63
2022-12-04T14:02:34.483Z,84.11
2022-12-04T14:05:11.451Z,85.27
2022-12-04T14:07:42.142Z,86.36
2022-12-04T14:10:14.805Z,85.99
2022-12-04T14:12:44.102Z,85.31
2022-12-04T14:15:28.650Z,85.37
2022-12-04T14:18:13.521Z,84.78
2022-12-04T14:20:42.690Z,85.24
2022-12-04T14:23:16.308Z,86.60
2022-12-04T14:25:42.722Z,86.26
2022-12-04T14:28:42.294Z,85.05
2022-12-04T14:31:08.922Z,86.88
2022-12-04T14:33:43.225Z,87.66
2022-12-04T14:36:23.564Z,87.85
2022-12-04T14:38:59.413Z,87.48
2022-12-04T14:41:26.728Z,85.55
2022-12-04T14:43:53.602Z,85.09
2022-12-04T14:46:41.031Z,85.32
2022-12-04T14:49:32.373Z,86.22
2022-12-04T14:52:13.994Z,85.50
2022-12-04T14:55:06.982Z,86.51
2022-12-04T14:57:44.987Z,87.73
2022-12-04T15:00:23.343Z,86.38
2022-12-04T15:02:56.763Z,85.82
2022-12-04T15:05:29.327Z,86.05
2022-12-04T15:08:05.430Z,85.08
2022-12-04T15:10:34.260Z,86.57
2022-12-04T15:13:00.780Z,87.43
2022-12-04T15:15:29.846Z,86.83
2022-12-04T15:18:11.090Z,86.76
2022-12-04T15:20:48.428Z,87.36
2022-12-04T15:23:21.473Z,86.98
2022-12-04T15:25:53.231Z,87.90
2022-12-04T15:28:24.277Z,87.88
2022-12-04T15:30:52.593Z,86.16
2022-12-04T15:33:22.435Z,85.75
2022-12-04T15:35:56.583Z,87.65
2022-12-04T15:38:23.610Z,87.40
2022-12-04T15:40:56.615Z,87.73
2022-12-04T15:43:53.446Z,87.48
2022-12-04T15:46:26.782Z,87.45
2022-12-04T15:49:04.735Z,87.08
2022-12-04T15:51:31.224Z,86.39
2022-12-04T15:53:57.632Z,86.39
2022-12-04T15:56:24.016Z,86.17
2022-12-04T15:58:57.911Z,85.40
2022-12-04T16:01:24.624Z,86.07
2022-12-04T16:03:53.184Z,85.97
2022-12-04T16:06:23.165Z,86.21
2022-12-04T16:09:00.851Z,87.38
2022-12-04T16:11:37.190Z,87.57
2022-12-04T16:14:07.752Z,86.59
2022-12-04T16:16:38.402Z,86.74
2022-12-04T16:19:38.572Z,84.04
2022-12-04T16:22:20.344Z,85.48
2022-12-04T16:24:47.381Z,86.70
2022-12-04T16:27:16.664Z,86.31
2022-12-04T16:29:43.735Z,87.30
2022-12-04T16:32:16.297Z,88.59
2022-12-04T16:34:42.693Z,86.72
2022-12-04T16:37:17.170Z,87.99
2022-12-04T16:39:43.984Z,88.72
2022-12-04T16:42:25.034Z,87.06
2022-12-04T16:44:52.051Z,86.98
2022-12-04T16:47:19.246Z,86.18
2022-12-04T16:49:49.041Z,86.62
2022-12-04T16:52:15.696Z,87.02
2022-12-04T16:54:42.433Z,86.03
2022-12-04T16:57:09.379Z,85.53
2022-12-04T16:59:35.937Z,84.80
2022-12-04T17:02:03.801Z,84.26
2022-12-04T17:04:30.232Z,84.89
2022-12-04T17:06:56.696Z,85.31
2022-12-04T17:09:23.168Z,87.24
2022-12-04T17:11:49.596Z,86.78
2022-12-04T17:14:16.160Z,87.78
2022-12-04T17:16:43.436Z,87.25
2022-12-04T17:19:11.325Z,88.25
2022-12-04T17:21:38.359Z,87.26
2022-12-04T17:24:05.687Z,87.97
2022-12-04T17:26:32.460Z,85.98
2022-12-04T17:28:58.768Z,88.13
2022-12-04T17:31:26.726Z,88.60
2022-12-04T17:33:53.628Z,89.08
2022-12-04T17:36:23.014Z,87.93
2022-12-04T17:38:54.554Z,88.57
2022-12-04T17:41:20.995Z,88.15
2022-12-04T17:43:47.425Z,87.22
2022-12-04T17:46:17.758Z,87.79
2022-12-04T17:48:44.387Z,88.90
2022-12-04T17:51:13.452Z,89.94
2022-12-04T17:53:40.557Z,90.29
2022-12-04T17:56:09.817Z,89.80
2022-12-04T17:58:36.389Z,89.54
2022-12-04T18:01:10.485Z,89.46
2022-12-04T18:03:37.417Z,88.27
2022-12-04T18:06:18.744Z,88.28
2022-12-04T18:08:49.730Z,89.07
2022-12-04T18:11:17.936Z,88.25
2022-12-04T18:13:44.260Z,88.69
2022-12-04T18:16:11.325Z,88.91
2022-12-04T18:18:38.937Z,88.98
2022-12-04T18:21:10.996Z,88.80
2022-12-04T18:23:39.233Z,89.18
2022-12-04T18:26:06.211Z,88.70
2022-12-04T18:28:33.424Z,89.62
2022-12-04T18:31:04.489Z,88.96
2022-12-04T18:33:32.003Z,89.26
2022-12-04T18:35:58.869Z,89.30
2022-12-04T18:38:27.640Z,88.43
2022-12-04T18:40:54.307Z,88.87
2022-12-04T18:43:21.619Z,89.07
2022-12-04T18:45:58.676Z,88.30
2022-12-04T18:48:28.577Z,88.93
2022-12-04T18:50:55.118Z,89.49
2022-12-04T18:53:22.100Z,87.84
2022-12-04T18:55:48.690Z,86.74
2022-12-04T18:58:15.144Z,87.54
2022-12-04T19:00:41.484Z,87.23
2022-12-04T19:03:07.834Z,88.36
2022-12-04T19:05:34.355Z,88.30
2022-12-04T19:08:01.126Z,86.09
2022-12-04T19:10:28.397Z,86.52
2022-12-04T19:12:55.728Z,86.64
2022-12-04T19:15:22.285Z,86.95
2022-12-04T19:17:49.008Z,88.02
2022-12-04T19:20:15.348Z,87.82
2022-12-04T19:22:41.819Z,87.18
2022-12-04T19:25:08.830Z,86.70
2022-12-04T19:27:35.229Z,87.69
2022-12-04T19:30:01.560Z,86.11
2022-12-04T19:32:27.961Z,87.03
2022-12-04T19:34:54.281Z,88.53
2022-12-04T19:37:20.625Z,88.62
2022-12-04T19:39:47.182Z,87.82
2022-12-04T19:42:13.700Z,87.56
2022-12-04T19:44:48.245Z,87.89
2022-12-04T19:47:14.992Z,88.70
2022-12-04T19:49:41.443Z,88.61
2022-12-04T19:52:07.807Z,87.97
2022-12-04T19:54:34.136Z,88.06
2022-12-04T19:57:00.595Z,87.74
2022-12-04T19:59:29.498Z,88.43
2022-12-04T20:01:59.523Z,87.47
2022-12-04T20:04:25.933Z,87.79
2022-12-04T20:06:52.667Z,88.62
2022-12-04T20:09:21.981Z,86.68
2022-12-04T20:11:48.789Z,87.97
2022-12-04T20:14:15.693Z,88.49
2022-12-04T20:16:42.286Z,86.62
2022-12-04T20:19:13.491Z,87.83
2022-12-04T20:21:39.995Z,87.72
2022-12-04T20:24:06.982Z,87.33
2022-12-04T20:26:35.936Z,87.81
2022-12-04T20:29:02.650Z,87.24
2022-12-04T20:31:37.949Z,88.67
2022-12-04T20:34:08.157Z,88.65
2022-12-04T20:36:40.284Z,89.12
2022-12-04T20:39:08.039Z,89.51
2022-12-04T20:41:35.203Z,89.10
2022-12-04T20:44:04.145Z,89.45
2022-12-04T20:46:33.290Z,87.36
2022-12-04T20:49:00.911Z,87.81
2022-12-04T20:51:33.332Z,88.70
2022-12-04T20:54:00.621Z,89.62
2022-12-04T20:56:29.089Z,89.90
2022-12-04T20:59:00.583Z,90.23
2022-12-04T21:01:27.928Z,90.11
2022-12-04T21:03:54.845Z,90.32
2022-12-04T21:06:28.353Z,89.40
2022-12-04T21:08:58.088Z,88.88
2022-12-04T21:11:27.494Z,89.01
2022-12-04T21:13:55.860Z,87.99
2022-12-04T21:16:22.658Z,88.76
2022-12-04T21:18:49.179Z,88.26
2022-12-04T21:21:15.590Z,89.18
2022-12-04T21:23:42.019Z,88.44
2022-12-04T21:26:08.327Z,88.21
2022-12-04T21:28:34.640Z,89.35
2022-12-04T21:31:05.743Z,90.33
2022-12-04T21:33:33.565Z,89.92
2022-12-04T21:36:09.225Z,90.30
2022-12-04T21:38:37.913Z,90.77
2022-12-04T21:41:06.784Z,90.78
2022-12-04T21:43:33.897Z,90.36
2022-12-04T21:46:09.206Z,90.18
2022-12-04T21:48:36.393Z,90.53
2022-12-04T21:51:13.237Z,90.41
2022-12-04T21:53:53.567Z,88.88
2022-12-04T21:56:21.027Z,89.09
2022-12-04T21:58:47.393Z,88.60
2022-12-04T22:01:16.144Z,89.34
2022-12-04T22:03:43.009Z,89.88
2022-12-04T22:06:09.787Z,90.54
2022-12-04T22:08:37.265Z,89.31
2022-12-04T22:11:09.041Z,88.05
2022-12-04T22:13:37.277Z,88.38
2022-12-04T22:16:09.393Z,88.42
2022-12-04T22:18:36.543Z,89.03
2022-12-04T22:21:08.376Z,89.17
2022-12-04T22:23:35.720Z,89.13
2022-12-04T22:26:10.940Z,89.51
2022-12-04T22:28:37.471Z,90.12
2022-12-04T22:31:10.858Z,89.47
2022-12-04T22:33:37.937Z,89.68
2022-12-04T22:36:07.488Z,87.82
2022-12-04T22:38:42.505Z,88.04
2022-12-04T22:41:21.250Z,89.38
2022-12-04T22:43:47.917Z,89.19
2022-12-04T22:46:14.491Z,88.94
2022-12-04T22:48:42.659Z,89.70
2022-12-04T22:51:14.486Z,89.13
2022-12-04T22:53:44.107Z,89.70
2022-12-04T22:56:16.151Z,90.00
2022-12-04T22:58:43.247Z,91.03
2022-12-04T23:01:14.168Z,91.22
2022-12-04T23:03:42.398Z,90.43
2022-12-04T23:06:10.532Z,90.77
2022-12-04T23:08:39.065Z,89.11
2022-12-04T23:11:11.417Z,88.55
2022-12-04T23:13:38.752Z,89.15
2022-12-04T23:16:09.541Z,89.54
2022-12-04T23:18:36.789Z,89.78
2022-12-04T23:21:09.681Z,89.89
2022-12-04T23:23:37.641Z,89.54
2022-12-04T23:26:05.728Z,89.42
2022-12-04T23:28:32.302Z,89.81
2022-12-04T23:30:59.397Z,90.12
2022-12-04T23:33:26.043Z,90.76
2022-12-04T23:35:54.193Z,90.62
2022-12-04T23:38:21.988Z,90.44
2022-12-04T23:40:49.118Z,90.33
2022-12-04T23:43:15.999Z,91.06
2022-12-04T23:45:43.459Z,90.68
2022-12-04T23:48:10.617Z,89.99
2022-12-04T23:50:36.999Z,89.79
2022-12-04T23:53:03.736Z,90.63
2022-12-04T23:55:34.188Z,91.03
2022-12-04T23:58:01.988Z,88.93
